Time;durP1;ratioP1;P1;durP2;ratioP2;P2;SDS_P1;SDS_P2;PMS_P1;PMS_P2;Temp;Humidity;BMP_temperature;BMP_pressure;BME280_temperature;BME280_humidity;BME280_pressure;Samples;Min_cycle;Max_cycle;Signal;HPM_P1;HPM_P2
2024/01/30 00:02:16;;;;;;;9.35;3.13;;;25.60;99.90;;;;;;5120042;27;20238;-79
2024/01/30 00:04:46;;;;;;;10.23;3.00;;;25.60;99.90;;;;;;5122940;27;20206;-78
2024/01/30 00:07:19;;;;;;;8.13;2.80;;;25.50;99.90;;;;;;5128806;27;20189;-79
2024/01/30 00:09:51;;;;;;;9.75;3.03;;;25.40;99.90;;;;;;5130723;27;20221;-79
2024/01/30 00:12:22;;;;;;;9.13;3.15;;;25.50;99.90;;;;;;5113171;28;20569;-78
2024/01/30 00:14:52;;;;;;;6.97;2.70;;;25.40;99.90;;;;;;5113593;28;20252;-79
2024/01/30 00:17:25;;;;;;;8.80;2.78;;;25.50;99.90;;;;;;5113176;28;20568;-80
2024/01/30 00:19:55;;;;;;;10.13;3.05;;;25.50;99.90;;;;;;5127915;27;20202;-79
2024/01/30 00:22:30;;;;;;;8.98;2.97;;;25.60;99.90;;;;;;5139552;27;20649;-78
2024/01/30 00:25:02;;;;;;;9.63;2.97;;;25.60;99.90;;;;;;5153994;27;20189;-80
2024/01/30 00:27:33;;;;;;;7.60;2.80;;;25.60;99.90;;;;;;5129544;27;20539;-79
2024/01/30 00:30:04;;;;;;;10.82;3.05;;;25.50;99.90;;;;;;5122937;27;20225;-78
2024/01/30 00:32:35;;;;;;;12.05;3.13;;;25.50;99.90;;;;;;5112374;27;20218;-79
2024/01/30 00:35:06;;;;;;;7.68;2.60;;;25.60;99.90;;;;;;5119398;27;20193;-78
2024/01/30 00:37:39;;;;;;;12.18;3.15;;;25.60;99.90;;;;;;5112104;28;20315;-79
2024/01/30 00:40:15;;;;;;;11.63;3.00;;;25.60;99.90;;;;;;5112339;28;20286;-77
2024/01/30 00:42:46;;;;;;;11.65;3.05;;;25.60;99.90;;;;;;5112733;28;20263;-78
2024/01/30 00:45:17;;;;;;;7.88;2.67;;;25.50;99.90;;;;;;5111848;28;20221;-78
2024/01/30 00:47:48;;;;;;;5.82;2.45;;;25.60;99.90;;;;;;5115571;27;20195;-78
2024/01/30 00:50:19;;;;;;;9.23;3.05;;;25.70;99.90;;;;;;5129234;27;20201;-79
2024/01/30 00:52:52;;;;;;;6.75;2.50;;;25.80;99.90;;;;;;5128776;27;20249;-79
2024/01/30 00:55:23;;;;;;;7.43;2.60;;;26.00;99.90;;;;;;5123839;27;20581;-78
2024/01/30 00:57:54;;;;;;;10.25;2.70;;;26.10;99.90;;;;;;5123139;27;20549;-78
2024/01/30 01:00:28;;;;;;;7.47;2.30;;;26.20;99.90;;;;;;5132265;27;20707;-78
2024/01/30 01:03:00;;;;;;;7.93;2.88;;;26.10;99.90;;;;;;5131164;27;20587;-78
2024/01/30 01:05:30;;;;;;;8.68;2.80;;;26.20;99.90;;;;;;5130755;27;20198;-79
2024/01/30 01:08:03;;;;;;;7.22;2.83;;;26.20;99.90;;;;;;5132305;27;20190;-79
2024/01/30 01:10:34;;;;;;;6.45;2.50;;;26.20;99.90;;;;;;5132771;27;20798;-80
2024/01/30 01:13:05;;;;;;;8.88;2.70;;;26.10;99.90;;;;;;5131664;27;20221;-79
2024/01/30 01:15:36;;;;;;;8.90;2.67;;;26.10;99.90;;;;;;5132398;27;20201;-78
2024/01/30 01:18:07;;;;;;;10.13;2.75;;;26.20;99.90;;;;;;5121871;27;20691;-79
2024/01/30 01:20:38;;;;;;;7.97;2.75;;;26.20;99.90;;;;;;5111957;28;20209;-79
2024/01/30 01:23:10;;;;;;;7.47;2.80;;;26.20;99.90;;;;;;5112643;28;20289;-78
2024/01/30 01:25:41;;;;;;;8.65;3.25;;;26.20;99.90;;;;;;5111397;28;20217;-78
2024/01/30 01:28:12;;;;;;;10.48;3.03;;;26.30;99.90;;;;;;5111246;28;20262;-79
2024/01/30 01:30:43;;;;;;;9.35;2.70;;;26.50;99.90;;;;;;5111483;28;20195;-78
2024/01/30 01:33:14;;;;;;;8.15;2.95;;;26.40;99.90;;;;;;5112609;28;20233;-77
2024/01/30 01:35:44;;;;;;;9.25;3.53;;;26.60;99.90;;;;;;5126873;28;20573;-78
2024/01/30 01:38:17;;;;;;;7.28;2.72;;;26.60;99.90;;;;;;5131183;27;20209;-78
2024/01/30 01:40:48;;;;;;;6.78;2.42;;;26.50;99.90;;;;;;5132154;28;20189;-78
2024/01/30 01:43:19;;;;;;;7.63;2.67;;;26.60;99.90;;;;;;5132072;27;20194;-79
2024/01/30 01:45:50;;;;;;;9.55;3.03;;;26.60;99.90;;;;;;5139029;27;20664;-78
2024/01/30 01:48:21;;;;;;;8.32;2.88;;;26.70;99.90;;;;;;5138290;27;20654;-78
2024/01/30 01:50:51;;;;;;;12.85;3.20;;;26.70;99.90;;;;;;5136806;27;20217;-79
2024/01/30 01:53:24;;;;;;;14.23;3.53;;;26.70;99.90;;;;;;5117672;28;20222;-78
2024/01/30 01:55:56;;;;;;;11.48;3.45;;;26.70;99.90;;;;;;5125702;27;20750;-79
2024/01/30 01:58:32;;;;;;;11.13;3.40;;;26.80;99.90;;;;;;5117978;28;20211;-78
2024/01/30 02:01:03;;;;;;;8.23;2.95;;;26.90;99.90;;;;;;5118129;28;20194;-79
2024/01/30 02:03:34;;;;;;;12.68;3.55;;;26.90;99.90;;;;;;5121356;28;20202;-78
2024/01/30 02:06:05;;;;;;;9.48;3.00;;;26.90;99.90;;;;;;5117936;28;20197;-79
2024/01/30 02:08:39;;;;;;;8.02;3.10;;;26.80;99.90;;;;;;5117056;27;20191;-79
2024/01/30 02:11:11;;;;;;;9.65;3.35;;;26.70;99.90;;;;;;5117464;28;20681;-78
2024/01/30 02:13:43;;;;;;;8.93;3.10;;;26.50;99.90;;;;;;5117912;27;20229;-78
2024/01/30 02:16:14;;;;;;;7.22;2.72;;;26.40;99.90;;;;;;5116794;27;20281;-79
2024/01/30 02:18:47;;;;;;;10.55;3.20;;;26.40;99.90;;;;;;5117525;28;20198;-79
2024/01/30 02:21:20;;;;;;;8.95;3.00;;;26.30;99.90;;;;;;5116551;27;20201;-79
2024/01/30 02:23:53;;;;;;;9.93;3.30;;;26.40;99.90;;;;;;5117848;28;20194;-79
2024/01/30 02:26:23;;;;;;;10.45;3.05;;;26.50;99.90;;;;;;5117447;28;20202;-78
2024/01/30 02:28:54;;;;;;;8.65;2.80;;;26.50;99.90;;;;;;5117433;27;20297;-78
2024/01/30 02:31:27;;;;;;;9.73;2.88;;;26.40;99.90;;;;;;5117533;28;20207;-78
2024/01/30 02:33:58;;;;;;;10.70;3.05;;;26.40;99.90;;;;;;5117226;28;20222;-78
2024/01/30 02:36:30;;;;;;;8.70;2.80;;;26.50;99.90;;;;;;5116693;28;20201;-79
2024/01/30 02:39:01;;;;;;;7.35;2.45;;;26.60;99.90;;;;;;5117339;27;20706;-78
2024/01/30 02:41:32;;;;;;;8.52;2.72;;;26.70;99.90;;;;;;5120760;27;20684;-78
2024/01/30 02:44:03;;;;;;;8.93;2.47;;;26.90;99.90;;;;;;5137173;27;20194;-79
2024/01/30 02:46:34;;;;;;;8.23;2.83;;;27.00;99.90;;;;;;5136440;27;20212;-79
2024/01/30 02:49:04;;;;;;;10.70;2.95;;;27.10;99.90;;;;;;5137257;27;20190;-79
2024/01/30 02:51:37;;;;;;;10.00;2.42;;;27.10;99.90;;;;;;5137646;27;20225;-79
2024/01/30 02:54:08;;;;;;;7.72;2.42;;;27.10;99.90;;;;;;5127733;27;20704;-78
2024/01/30 02:56:39;;;;;;;11.57;2.75;;;27.10;99.90;;;;;;5112970;27;20205;-78
2024/01/30 02:59:10;;;;;;;8.93;2.40;;;27.00;99.90;;;;;;5114213;28;20198;-79
2024/01/30 03:01:47;;;;;;;11.00;2.50;;;27.10;99.90;;;;;;5113812;28;20658;-79
2024/01/30 03:04:18;;;;;;;8.50;2.28;;;27.00;99.90;;;;;;5126061;27;20293;-80
2024/01/30 03:06:53;;;;;;;11.20;2.40;;;27.00;99.90;;;;;;5134739;27;20194;-78
2024/01/30 03:09:24;;;;;;;10.70;2.53;;;26.90;99.90;;;;;;5133815;27;20585;-78
2024/01/30 03:11:55;;;;;;;7.10;2.05;;;26.90;99.90;;;;;;5131710;27;20557;-79
2024/01/30 03:14:26;;;;;;;10.82;2.60;;;26.90;99.90;;;;;;5132823;27;20232;-79
2024/01/30 03:16:57;;;;;;;9.57;2.22;;;27.10;99.90;;;;;;5131902;27;20277;-79
2024/01/30 03:19:27;;;;;;;7.28;2.22;;;27.20;99.90;;;;;;5133470;27;20193;-81
2024/01/30 03:22:00;;;;;;;8.82;2.38;;;27.30;99.90;;;;;;5132083;27;20194;-80
2024/01/30 03:24:31;;;;;;;9.75;2.33;;;27.40;99.90;;;;;;5134345;27;20201;-81
2024/01/30 03:27:02;;;;;;;11.02;2.65;;;27.30;99.90;;;;;;5133802;27;20201;-81
2024/01/30 03:29:33;;;;;;;10.77;2.58;;;27.20;99.90;;;;;;5134574;27;20217;-81
2024/01/30 03:32:04;;;;;;;8.38;2.60;;;27.30;99.90;;;;;;5134032;27;20285;-79
2024/01/30 03:34:34;;;;;;;10.75;2.53;;;27.30;99.90;;;;;;5134636;27;20222;-80
2024/01/30 03:37:07;;;;;;;7.97;2.30;;;27.30;99.90;;;;;;5131506;27;20208;-79
2024/01/30 03:39:38;;;;;;;11.43;2.63;;;27.20;99.90;;;;;;5114113;28;20199;-81
2024/01/30 03:42:09;;;;;;;7.45;2.10;;;27.10;99.90;;;;;;5119163;27;20202;-80
2024/01/30 03:44:40;;;;;;;9.23;2.25;;;27.00;99.90;;;;;;5135855;27;20201;-80
2024/01/30 03:47:11;;;;;;;8.98;2.20;;;27.00;99.90;;;;;;5141476;27;20229;-79
2024/01/30 03:49:41;;;;;;;8.25;2.60;;;26.90;99.90;;;;;;5136032;27;20190;-80
2024/01/30 03:52:14;;;;;;;12.00;2.85;;;26.90;99.90;;;;;;5136886;27;20229;-80
2024/01/30 03:54:45;;;;;;;10.57;2.55;;;26.90;99.90;;;;;;5121722;27;20226;-79
2024/01/30 03:57:15;;;;;;;12.95;3.00;;;26.90;99.90;;;;;;5116513;28;20213;-81
2024/01/30 03:59:46;;;;;;;14.52;2.95;;;26.90;99.90;;;;;;5113966;28;20190;-79
2024/01/30 04:02:17;;;;;;;9.95;2.30;;;26.90;99.90;;;;;;5112989;28;20194;-79
2024/01/30 04:04:48;;;;;;;8.57;2.30;;;26.80;99.90;;;;;;5113205;28;20228;-80
2024/01/30 04:07:21;;;;;;;11.48;3.05;;;26.70;99.90;;;;;;5112649;28;20562;-80
2024/01/30 04:09:51;;;;;;;5.93;2.10;;;26.70;99.90;;;;;;5112360;27;20205;-80
2024/01/30 04:12:22;;;;;;;8.85;2.47;;;26.70;99.90;;;;;;5126138;27;20369;-80
2024/01/30 04:14:53;;;;;;;7.53;2.15;;;26.60;99.90;;;;;;5132717;27;20232;-80
2024/01/30 04:17:24;;;;;;;9.85;2.20;;;26.50;99.90;;;;;;5133611;27;20198;-81
2024/01/30 04:19:54;;;;;;;7.43;2.30;;;26.40;99.90;;;;;;5133163;27;20208;-80
2024/01/30 04:22:27;;;;;;;9.27;2.63;;;26.50;99.90;;;;;;5114695;27;20677;-80
2024/01/30 04:24:58;;;;;;;8.02;2.28;;;26.50;99.90;;;;;;5112162;27;20195;-81
2024/01/30 04:27:29;;;;;;;10.77;2.60;;;26.50;99.90;;;;;;5112363;27;20245;-81
2024/01/30 04:29:59;;;;;;;9.35;2.40;;;26.40;99.90;;;;;;5131726;27;20208;-79
2024/01/30 04:32:30;;;;;;;10.05;2.50;;;26.40;99.90;;;;;;5133284;27;20194;-80
2024/01/30 04:35:01;;;;;;;6.88;2.30;;;26.40;99.90;;;;;;5132484;27;20226;-80
2024/01/30 04:37:33;;;;;;;9.18;1.98;;;26.40;99.90;;;;;;5114571;27;20290;-80
2024/01/30 04:40:05;;;;;;;7.25;2.22;;;26.50;99.90;;;;;;5111791;28;20198;-82
2024/01/30 04:42:35;;;;;;;7.03;2.35;;;26.50;99.90;;;;;;5110839;28;20191;-81
2024/01/30 04:45:06;;;;;;;7.05;1.98;;;26.60;99.90;;;;;;5114145;27;20765;-80
2024/01/30 04:47:37;;;;;;;9.23;2.50;;;26.60;99.90;;;;;;5132433;27;20193;-81
2024/01/30 04:50:08;;;;;;;11.68;2.70;;;26.60;99.90;;;;;;5132646;27;20197;-80
2024/01/30 04:52:41;;;;;;;15.68;3.25;;;26.50;99.90;;;;;;5134386;27;20672;-81
2024/01/30 04:55:12;;;;;;;8.27;2.50;;;26.50;99.90;;;;;;5132431;27;20313;-80
2024/01/30 04:57:43;;;;;;;9.10;2.80;;;26.60;99.90;;;;;;5132199;27;20657;-81
2024/01/30 05:00:15;;;;;;;9.60;2.38;;;26.70;99.90;;;;;;5119240;27;20204;-80
2024/01/30 05:02:47;;;;;;;9.50;2.50;;;26.90;99.90;;;;;;5115488;27;20281;-80
2024/01/30 05:05:17;;;;;;;17.02;3.38;;;27.00;99.90;;;;;;5131295;27;20209;-80
2024/01/30 05:07:50;;;;;;;14.23;2.92;;;27.10;99.90;;;;;;5132367;27;20216;-80
2024/01/30 05:10:21;;;;;;;18.45;2.53;;;27.30;99.90;;;;;;5131921;27;20212;-81
2024/01/30 05:12:51;;;;;;;11.00;2.70;;;27.40;99.90;;;;;;5112167;28;20205;-80
2024/01/30 05:15:23;;;;;;;9.30;2.33;;;27.40;99.90;;;;;;5112430;28;20233;-80
2024/01/30 05:17:53;;;;;;;13.82;2.72;;;27.60;99.90;;;;;;5111950;28;20205;-81
2024/01/30 05:20:27;;;;;;;8.98;2.35;;;27.60;99.90;;;;;;5110199;28;20206;-80
2024/01/30 05:23:00;;;;;;;10.65;2.58;;;27.60;99.90;;;;;;5111068;28;20198;-81
2024/01/30 05:25:31;;;;;;;12.50;2.65;;;27.70;99.90;;;;;;5111684;28;20667;-81
2024/01/30 05:28:01;;;;;;;11.52;3.05;;;27.80;99.90;;;;;;5110449;28;20199;-80
2024/01/30 05:30:32;;;;;;;10.68;2.65;;;27.80;99.90;;;;;;5111901;28;20533;-81
2024/01/30 05:33:03;;;;;;;14.20;3.05;;;27.90;99.90;;;;;;5110523;28;20208;-81
2024/01/30 05:35:34;;;;;;;13.13;2.58;;;28.00;99.90;;;;;;5111052;28;20218;-81
2024/01/30 05:38:07;;;;;;;11.30;3.08;;;28.20;99.90;;;;;;5111521;28;20198;-81
2024/01/30 05:40:38;;;;;;;10.18;2.58;;;28.20;99.90;;;;;;5117154;27;20233;-81
2024/01/30 05:43:09;;;;;;;12.05;2.97;;;28.30;99.90;;;;;;5132174;28;20238;-81
2024/01/30 05:45:40;;;;;;;13.48;3.10;;;28.30;99.90;;;;;;5117265;28;20216;-80
2024/01/30 05:48:10;;;;;;;8.77;2.53;;;28.20;99.90;;;;;;5125689;28;20284;-80
2024/01/30 05:50:41;;;;;;;9.40;2.75;;;28.20;99.90;;;;;;5132270;28;20675;-79
2024/01/30 05:53:14;;;;;;;13.18;2.83;;;28.20;99.90;;;;;;5130845;28;20208;-79
2024/01/30 05:55:45;;;;;;;9.63;2.70;;;28.20;99.90;;;;;;5131636;28;20308;-79
2024/01/30 05:58:15;;;;;;;11.65;2.90;;;28.10;99.90;;;;;;5131923;28;20289;-79
2024/01/30 06:00:46;;;;;;;9.63;2.47;;;28.00;99.90;;;;;;5126067;28;20199;-79
2024/01/30 06:03:17;;;;;;;11.15;2.63;;;27.90;99.90;;;;;;5111301;28;20187;-79
2024/01/30 06:05:48;;;;;;;8.40;2.60;;;27.80;99.90;;;;;;5112187;28;20248;-79
2024/01/30 06:08:20;;;;;;;12.20;2.97;;;27.60;99.90;;;;;;5129319;28;20280;-81
2024/01/30 06:10:51;;;;;;;11.13;2.85;;;27.60;99.90;;;;;;5122442;28;20202;-80
2024/01/30 06:13:22;;;;;;;10.20;2.88;;;27.50;99.90;;;;;;5110798;28;20198;-80
2024/01/30 06:15:53;;;;;;;9.82;2.42;;;27.50;99.90;;;;;;5114734;28;20226;-80
2024/01/30 06:18:24;;;;;;;16.55;3.30;;;27.40;99.90;;;;;;5119755;28;20190;-81
2024/01/30 06:20:55;;;;;;;10.73;2.88;;;27.30;99.90;;;;;;5121381;28;20197;-80
2024/01/30 06:23:27;;;;;;;9.23;2.88;;;27.30;99.90;;;;;;5110768;28;20194;-81
2024/01/30 06:25:58;;;;;;;9.82;2.88;;;27.50;99.90;;;;;;5145243;27;20205;-80
2024/01/30 06:28:29;;;;;;;10.30;2.70;;;27.70;99.90;;;;;;5121933;27;20198;-80
2024/01/30 06:30:59;;;;;;;10.98;3.00;;;28.10;99.90;;;;;;5111983;28;20671;-81
2024/01/30 06:33:30;;;;;;;11.63;2.88;;;28.70;99.90;;;;;;5115296;27;20210;-81
2024/01/30 06:36:01;;;;;;;12.63;2.92;;;29.10;99.90;;;;;;5114901;28;20579;-80
2024/01/30 06:38:34;;;;;;;12.27;3.22;;;29.30;99.90;;;;;;5123721;27;20190;-81
2024/01/30 06:41:04;;;;;;;9.52;2.95;;;29.40;99.90;;;;;;5135049;27;20280;-80
2024/01/30 06:43:35;;;;;;;14.85;3.17;;;29.10;99.90;;;;;;5129893;27;20198;-80
2024/01/30 06:46:06;;;;;;;17.38;3.72;;;28.80;99.90;;;;;;5118386;27;20194;-80
2024/01/30 06:48:40;;;;;;;9.32;2.60;;;28.50;99.90;;;;;;5122510;27;20197;-80
2024/01/30 06:51:11;;;;;;;12.93;2.83;;;28.10;99.90;;;;;;5124778;27;20651;-80
2024/01/30 06:53:44;;;;;;;16.30;3.05;;;27.70;99.90;;;;;;5123513;27;20628;-81
2024/01/30 06:56:15;;;;;;;16.65;3.40;;;27.50;99.90;;;;;;5124333;27;20222;-80
2024/01/30 06:58:45;;;;;;;11.80;2.92;;;27.30;99.90;;;;;;5122092;27;20209;-80
2024/01/30 07:01:16;;;;;;;13.55;3.20;;;27.10;99.90;;;;;;5117948;27;20205;-80
2024/01/30 07:03:47;;;;;;;11.73;3.00;;;27.00;99.90;;;;;;5110674;27;20201;-80
2024/01/30 07:06:18;;;;;;;17.35;3.47;;;26.80;99.90;;;;;;5089880;27;20190;-79
2024/01/30 07:08:51;;;;;;;11.95;3.05;;;26.70;99.90;;;;;;5120855;28;20201;-80
2024/01/30 07:11:24;;;;;;;12.95;3.20;;;26.70;99.90;;;;;;5113906;28;20626;-80
2024/01/30 07:13:55;;;;;;;15.70;3.40;;;26.60;99.90;;;;;;5126512;27;20571;-80
2024/01/30 07:16:25;;;;;;;16.50;3.90;;;26.60;99.90;;;;;;5112998;28;20309;-80
2024/01/30 07:18:56;;;;;;;12.68;3.30;;;26.50;99.90;;;;;;5114481;27;20206;-79
2024/01/30 07:21:28;;;;;;;17.63;3.75;;;26.40;99.90;;;;;;5114221;27;20199;-80
2024/01/30 07:24:00;;;;;;;20.05;3.70;;;26.30;99.90;;;;;;5131749;27;20658;-80
2024/01/30 07:26:31;;;;;;;14.02;3.33;;;26.30;99.90;;;;;;5133467;27;20202;-80
2024/01/30 07:29:02;;;;;;;12.02;3.03;;;26.20;99.90;;;;;;5132510;27;20200;-80
2024/01/30 07:31:33;;;;;;;11.65;3.08;;;26.30;99.90;;;;;;5117051;27;20190;-80
2024/01/30 07:34:04;;;;;;;11.45;3.05;;;26.20;99.90;;;;;;5113963;27;20206;-79
2024/01/30 07:36:35;;;;;;;11.50;3.15;;;26.10;99.90;;;;;;5120161;27;20225;-79
2024/01/30 07:39:07;;;;;;;14.35;3.20;;;26.10;99.90;;;;;;5112860;28;20849;-80
2024/01/30 07:41:38;;;;;;;15.98;3.35;;;26.10;99.90;;;;;;5127004;27;20197;-80
2024/01/30 07:44:09;;;;;;;16.42;3.40;;;26.10;99.90;;;;;;5132980;27;20204;-80
2024/01/30 07:46:40;;;;;;;16.23;3.33;;;26.10;99.90;;;;;;5129772;27;20195;-80
2024/01/30 07:49:10;;;;;;;14.80;3.38;;;26.00;99.90;;;;;;5127237;27;20198;-79
2024/01/30 07:51:43;;;;;;;15.55;4.00;;;26.00;99.90;;;;;;5121753;27;20221;-81
2024/01/30 07:54:15;;;;;;;13.18;3.58;;;26.00;99.90;;;;;;5116241;27;20264;-80
2024/01/30 07:56:46;;;;;;;14.13;3.88;;;26.00;99.90;;;;;;5112845;28;20214;-80
2024/01/30 07:59:21;;;;;;;15.82;3.40;;;26.00;99.90;;;;;;5117571;27;20201;-79
2024/01/30 08:01:52;;;;;;;14.05;3.05;;;25.90;99.90;;;;;;5118183;27;20214;-80
2024/01/30 08:04:23;;;;;;;16.70;3.53;;;26.00;99.90;;;;;;5115503;27;20201;-79
2024/01/30 08:06:53;;;;;;;16.48;3.60;;;25.90;99.90;;;;;;5131934;27;20274;-80
2024/01/30 08:09:26;;;;;;;13.52;3.35;;;25.90;99.90;;;;;;5131597;27;20197;-79
2024/01/30 08:11:57;;;;;;;13.95;3.55;;;25.80;99.90;;;;;;5127373;27;20193;-80
2024/01/30 08:14:28;;;;;;;13.05;3.70;;;25.80;99.90;;;;;;5116902;28;20283;-79
2024/01/30 08:16:58;;;;;;;13.52;3.58;;;25.80;99.90;;;;;;5123951;27;20655;-81
2024/01/30 08:19:29;;;;;;;12.70;3.60;;;25.90;99.90;;;;;;5112738;28;20198;-80
2024/01/30 08:22:00;;;;;;;12.18;3.50;;;25.80;99.90;;;;;;5124366;27;20194;-80
2024/01/30 08:24:32;;;;;;;16.52;4.00;;;25.80;99.90;;;;;;5119988;27;20223;-80
2024/01/30 08:27:05;;;;;;;15.35;3.53;;;25.80;99.90;;;;;;5129396;27;20564;-80
2024/01/30 08:29:35;;;;;;;11.93;3.22;;;25.80;99.90;;;;;;5116038;27;20193;-80
2024/01/30 08:32:07;;;;;;;16.35;3.78;;;25.80;99.90;;;;;;5112734;27;20199;-80
2024/01/30 08:34:37;;;;;;;9.88;3.30;;;25.70;99.90;;;;;;5116536;27;20190;-81
2024/01/30 08:37:08;;;;;;;11.80;3.28;;;25.70;99.90;;;;;;5132544;27;20200;-80
2024/01/30 08:39:41;;;;;;;16.52;3.80;;;25.70;99.90;;;;;;5120121;27;20204;-81
2024/01/30 08:42:12;;;;;;;13.40;3.55;;;25.70;99.90;;;;;;5132979;27;20201;-82
2024/01/30 08:44:43;;;;;;;13.18;3.30;;;25.70;99.90;;;;;;5125935;27;20586;-80
2024/01/30 08:47:16;;;;;;;14.57;3.33;;;25.70;99.90;;;;;;5117369;27;20226;-81
2024/01/30 08:49:47;;;;;;;15.25;3.95;;;25.60;99.90;;;;;;5122138;27;20228;-81
2024/01/30 08:52:18;;;;;;;16.58;3.67;;;25.60;99.90;;;;;;5111519;28;20237;-81
2024/01/30 08:54:50;;;;;;;17.35;3.58;;;25.60;99.90;;;;;;5116566;27;20186;-81
2024/01/30 08:57:21;;;;;;;14.60;3.95;;;25.50;99.90;;;;;;5117028;27;20547;-80
2024/01/30 08:59:52;;;;;;;15.50;3.38;;;25.40;99.90;;;;;;5130931;27;20196;-81
2024/01/30 09:02:23;;;;;;;13.35;2.80;;;25.40;99.90;;;;;;5126386;27;20557;-81
2024/01/30 09:04:53;;;;;;;15.88;3.50;;;25.30;99.90;;;;;;5118519;27;20190;-80
2024/01/30 09:07:24;;;;;;;16.10;3.53;;;25.30;99.90;;;;;;5131485;27;20208;-80
2024/01/30 09:09:57;;;;;;;16.85;3.83;;;25.40;99.90;;;;;;5132122;27;20602;-81
2024/01/30 09:12:28;;;;;;;15.00;3.60;;;25.40;99.90;;;;;;5115463;27;20217;-80
2024/01/30 09:14:59;;;;;;;13.25;3.22;;;25.40;99.90;;;;;;5115649;27;20550;-81
2024/01/30 09:17:30;;;;;;;13.30;3.47;;;25.30;99.90;;;;;;5131712;27;20308;-80
2024/01/30 09:20:01;;;;;;;13.90;3.13;;;25.30;99.90;;;;;;5133824;27;20198;-81
2024/01/30 09:22:32;;;;;;;17.58;3.60;;;25.30;99.90;;;;;;5118890;27;20201;-80
2024/01/30 09:25:04;;;;;;;17.80;3.90;;;25.30;99.90;;;;;;5111033;28;20222;-80
2024/01/30 09:27:36;;;;;;;21.20;3.80;;;25.20;99.90;;;;;;5125626;27;20665;-81
2024/01/30 09:30:07;;;;;;;18.85;3.70;;;25.20;99.90;;;;;;5135540;27;20485;-81
2024/01/30 09:32:38;;;;;;;20.73;4.13;;;25.30;99.90;;;;;;5118684;27;20209;-80
2024/01/30 09:35:09;;;;;;;15.90;3.45;;;25.30;99.90;;;;;;5120626;27;20191;-81
2024/01/30 09:37:39;;;;;;;17.13;3.55;;;25.30;99.90;;;;;;5112087;28;20234;-81
2024/01/30 09:40:13;;;;;;;17.88;3.58;;;25.30;99.90;;;;;;5115479;27;20210;-81
2024/01/30 09:42:45;;;;;;;13.15;3.17;;;25.30;99.90;;;;;;5119190;28;20610;-81
2024/01/30 09:45:18;;;;;;;21.25;3.85;;;25.30;99.90;;;;;;5132042;28;20198;-81
2024/01/30 09:47:50;;;;;;;11.32;3.25;;;25.40;99.90;;;;;;5131512;28;20198;-81
2024/01/30 09:50:21;;;;;;;20.92;3.88;;;25.40;99.90;;;;;;5131869;28;20295;-81
2024/01/30 09:52:52;;;;;;;18.35;3.50;;;25.40;99.90;;;;;;5114953;28;20721;-80
2024/01/30 09:55:25;;;;;;;20.15;3.63;;;25.40;99.90;;;;;;5111484;28;20207;-81
2024/01/30 09:57:55;;;;;;;12.38;3.40;;;25.40;99.90;;;;;;5128987;28;20193;-81
2024/01/30 10:00:27;;;;;;;14.80;3.60;;;25.40;99.90;;;;;;5112641;28;20202;-82
2024/01/30 10:02:58;;;;;;;16.77;4.10;;;25.30;99.90;;;;;;5121203;28;20194;-80
2024/01/30 10:05:34;;;;;;;15.88;3.97;;;25.40;99.90;;;;;;5122412;27;20229;-81
2024/01/30 10:08:08;;;;;;;16.98;3.95;;;25.40;99.90;;;;;;5126066;27;20241;-82
2024/01/30 10:10:41;;;;;;;16.30;3.83;;;25.40;99.90;;;;;;5126911;27;20197;-81
2024/01/30 10:13:12;;;;;;;18.65;3.92;;;25.40;99.90;;;;;;5135477;27;20202;-80
2024/01/30 10:15:44;;;;;;;16.25;3.45;;;25.40;99.90;;;;;;5134132;27;20213;-81
2024/01/30 10:18:15;;;;;;;17.50;3.50;;;25.40;99.90;;;;;;5126699;27;20604;-81
2024/01/30 10:20:46;;;;;;;19.10;3.55;;;25.40;99.90;;;;;;5117473;27;20279;-80
2024/01/30 10:23:18;;;;;;;19.92;3.63;;;25.40;99.90;;;;;;5127070;27;20178;-79
2024/01/30 10:25:51;;;;;;;15.52;2.80;;;25.40;99.90;;;;;;5129601;27;20225;-80
2024/01/30 10:28:21;;;;;;;15.05;3.67;;;25.40;99.90;;;;;;5135911;27;20196;-80
2024/01/30 10:31:03;;;;;;;13.65;3.05;;;25.40;99.90;;;;;;5120482;27;20195;-81
2024/01/30 10:33:34;;;;;;;15.88;3.22;;;25.40;99.90;;;;;;5130148;27;20194;-80
2024/01/30 10:36:06;;;;;;;19.48;3.63;;;25.40;99.90;;;;;;5122083;27;20221;-82
2024/01/30 10:38:37;;;;;;;10.90;3.10;;;25.50;99.90;;;;;;5128254;27;20213;-81
2024/01/30 10:41:13;;;;;;;19.40;3.95;;;25.40;99.90;;;;;;5156030;27;20258;-81
2024/01/30 10:43:49;;;;;;;16.55;3.33;;;25.40;99.90;;;;;;5121843;27;20251;-82
2024/01/30 10:46:22;;;;;;;15.27;3.28;;;25.40;99.90;;;;;;5113603;28;20194;-80
2024/01/30 10:49:01;;;;;;;12.48;3.03;;;25.40;99.90;;;;;;5115019;27;20667;-81
2024/01/30 10:51:33;;;;;;;19.58;3.45;;;25.40;99.90;;;;;;5104775;28;20231;-79
2024/01/30 10:54:06;;;;;;;12.63;3.20;;;25.40;99.90;;;;;;5094065;28;20206;-81
2024/01/30 10:56:39;;;;;;;18.65;3.55;;;25.40;99.90;;;;;;5094403;28;20814;-80
2024/01/30 10:59:10;;;;;;;14.70;3.58;;;25.40;99.90;;;;;;5093947;28;20553;-81
2024/01/30 11:01:41;;;;;;;13.93;2.90;;;25.30;99.90;;;;;;5093086;28;20184;-81
2024/01/30 11:04:12;;;;;;;13.88;3.33;;;25.30;99.90;;;;;;5093959;28;20194;-82
2024/01/30 11:06:45;;;;;;;15.13;3.67;;;25.30;99.90;;;;;;5100969;28;20201;-80
2024/01/30 11:09:19;;;;;;;12.25;3.30;;;25.30;99.90;;;;;;5115385;28;20198;-81
2024/01/30 11:11:59;;;;;;;15.65;3.38;;;25.30;99.90;;;;;;5114289;28;20212;-79
2024/01/30 11:14:32;;;;;;;17.75;3.40;;;25.20;99.90;;;;;;5093481;28;20191;-81
2024/01/30 11:17:03;;;;;;;19.38;3.55;;;25.20;99.90;;;;;;5092996;28;20223;-81
2024/01/30 11:19:36;;;;;;;15.32;3.45;;;25.20;99.90;;;;;;5092258;28;20203;-82
2024/01/30 11:22:09;;;;;;;15.65;3.10;;;25.20;99.90;;;;;;5093292;28;20656;-81
2024/01/30 11:24:43;;;;;;;15.60;3.92;;;25.20;99.90;;;;;;5097909;28;20199;-81
2024/01/30 11:27:18;;;;;;;17.50;3.80;;;25.20;99.90;;;;;;5117487;28;20214;-81
2024/01/30 11:29:54;;;;;;;15.48;3.63;;;25.20;99.90;;;;;;5110061;28;20194;-82
2024/01/30 11:32:27;;;;;;;17.67;3.38;;;25.20;99.90;;;;;;5109318;28;20205;-82
2024/01/30 11:34:57;;;;;;;17.27;3.70;;;25.20;99.90;;;;;;5093133;28;20191;-81
2024/01/30 11:37:29;;;;;;;10.65;3.15;;;25.20;99.90;;;;;;5093547;28;20218;-82
2024/01/30 11:40:01;;;;;;;16.40;3.40;;;25.20;99.90;;;;;;5096335;28;20198;-81
2024/01/30 11:42:34;;;;;;;16.75;3.58;;;25.20;99.90;;;;;;5104421;28;20199;-82
2024/01/30 11:45:05;;;;;;;17.20;3.50;;;25.20;99.90;;;;;;5098370;28;20193;-81
2024/01/30 11:47:39;;;;;;;14.82;3.42;;;25.20;99.90;;;;;;5099405;28;20282;-82
2024/01/30 11:50:11;;;;;;;15.80;3.70;;;25.20;99.90;;;;;;5096359;28;20198;-82
2024/01/30 11:52:42;;;;;;;17.08;3.50;;;25.20;99.90;;;;;;5094262;28;20574;-83
2024/01/30 11:55:19;;;;;;;17.20;3.30;;;25.10;99.90;;;;;;5094397;28;20196;-83
2024/01/30 11:57:52;;;;;;;15.73;3.22;;;25.20;99.90;;;;;;5112309;27;20218;-83
2024/01/30 12:00:23;;;;;;;10.18;2.80;;;25.20;99.90;;;;;;5091913;28;20195;-82
2024/01/30 12:02:55;;;;;;;18.05;3.45;;;25.20;99.90;;;;;;5092748;28;20192;-82
2024/01/30 12:05:26;;;;;;;12.68;3.10;;;25.20;99.90;;;;;;5092882;28;20278;-81
2024/01/30 12:07:58;;;;;;;12.55;2.92;;;25.20;99.90;;;;;;5096439;28;20203;-81
2024/01/30 12:10:29;;;;;;;17.95;3.78;;;25.20;99.90;;;;;;5091958;28;20207;-82
2024/01/30 12:13:02;;;;;;;13.23;3.00;;;25.20;99.90;;;;;;5092322;28;20200;-81
2024/01/30 12:15:33;;;;;;;11.27;3.05;;;25.20;99.90;;;;;;5104760;28;20198;-82
2024/01/30 12:18:10;;;;;;;11.00;3.17;;;25.20;99.90;;;;;;5101326;28;20219;-81
2024/01/30 12:20:40;;;;;;;16.95;3.60;;;25.20;99.90;;;;;;5112332;28;20198;-80
2024/01/30 12:23:11;;;;;;;16.65;3.55;;;25.20;99.90;;;;;;5111335;28;20202;-80
2024/01/30 12:25:42;;;;;;;15.55;3.45;;;25.20;99.90;;;;;;5108821;28;20549;-80
2024/01/30 12:28:15;;;;;;;14.18;3.53;;;25.20;99.90;;;;;;5103728;28;20207;-79
2024/01/30 12:30:46;;;;;;;14.10;3.40;;;25.20;99.90;;;;;;5097549;28;20203;-79
2024/01/30 12:33:20;;;;;;;14.10;3.50;;;25.20;99.90;;;;;;5104537;28;20281;-78
2024/01/30 12:35:51;;;;;;;14.15;3.50;;;25.20;99.90;;;;;;5111025;28;20218;-79
2024/01/30 12:38:22;;;;;;;10.60;2.85;;;25.20;99.90;;;;;;5111540;28;20612;-79
2024/01/30 12:40:57;;;;;;;11.80;3.30;;;25.20;99.90;;;;;;5094693;28;20202;-80
2024/01/30 12:43:32;;;;;;;14.73;3.50;;;25.20;99.90;;;;;;5092024;28;20198;-80
2024/01/30 12:46:03;;;;;;;12.95;3.58;;;25.20;99.90;;;;;;5091725;28;20282;-79
2024/01/30 12:48:33;;;;;;;17.40;3.60;;;25.20;99.90;;;;;;5091354;28;20195;-80
2024/01/30 12:51:05;;;;;;;12.98;3.15;;;25.20;99.90;;;;;;5104293;27;20309;-80
2024/01/30 12:53:36;;;;;;;11.82;3.38;;;25.20;99.90;;;;;;5094058;28;20226;-79
2024/01/30 12:56:07;;;;;;;13.27;3.47;;;25.20;99.90;;;;;;5112275;28;20198;-80
2024/01/30 12:58:39;;;;;;;17.27;3.60;;;25.30;99.90;;;;;;5112494;27;20199;-79
2024/01/30 13:01:10;;;;;;;18.58;3.95;;;25.30;99.90;;;;;;5128800;27;20562;-79
2024/01/30 13:03:41;;;;;;;13.35;3.47;;;25.30;99.90;;;;;;5132513;27;20219;-80